createdAt,value
2023-05-14T00:01:21.705Z,11.17
2023-05-14T00:03:50.352Z,11.10
2023-05-14T00:06:19.067Z,9.73
2023-05-14T00:08:47.655Z,9.67
2023-05-14T00:11:17.426Z,9.97
2023-05-14T00:13:46.039Z,11.40
2023-05-14T00:16:16.041Z,10.73
2023-05-14T00:18:44.745Z,10.23
2023-05-14T00:21:13.326Z,10.33
2023-05-14T00:23:41.910Z,10.23
2023-05-14T00:26:10.791Z,9.73
2023-05-14T00:28:40.875Z,11.37
2023-05-14T00:31:09.413Z,10.63
2023-05-14T00:33:39.320Z,9.90
2023-05-14T00:36:09.045Z,10.57
2023-05-14T00:38:37.579Z,10.27
2023-05-14T00:41:06.278Z,9.83
2023-05-14T00:43:34.794Z,10.27
2023-05-14T00:46:03.612Z,10.40
2023-05-14T00:48:32.195Z,10.10
2023-05-14T00:51:02.217Z,10.93
2023-05-14T00:53:30.782Z,11.13
2023-05-14T00:56:00.157Z,9.60
2023-05-14T00:58:28.763Z,11.43
2023-05-14T01:00:57.532Z,11.10
2023-05-14T01:03:26.405Z,10.30
2023-05-14T01:06:01.956Z,9.80
2023-05-14T01:08:41.807Z,11.00
2023-05-14T01:11:18.408Z,11.37
2023-05-14T01:13:53.641Z,9.87
2023-05-14T01:16:26.302Z,10.13
2023-05-14T01:18:57.590Z,10.43
2023-05-14T01:21:37.112Z,10.33
2023-05-14T01:24:06.404Z,10.03
2023-05-14T01:26:35.335Z,10.70
2023-05-14T01:29:12.101Z,10.97
2023-05-14T01:31:44.219Z,10.63
2023-05-14T01:34:13.975Z,11.27
2023-05-14T01:36:44.981Z,10.53
2023-05-14T01:39:15.208Z,9.83
2023-05-14T01:41:44.388Z,10.73
2023-05-14T01:44:13.194Z,10.30
2023-05-14T01:46:41.771Z,10.43
2023-05-14T01:49:10.389Z,9.73
2023-05-14T01:51:38.887Z,9.87
2023-05-14T01:54:08.806Z,10.17
2023-05-14T01:56:37.310Z,9.90
2023-05-14T01:59:05.855Z,10.40
2023-05-14T02:01:34.475Z,11.07
2023-05-14T02:04:03.062Z,10.07
2023-05-14T02:06:31.623Z,10.17
2023-05-14T02:09:00.367Z,10.80
2023-05-14T02:11:30.569Z,9.97
2023-05-14T02:13:59.102Z,10.50
2023-05-14T02:16:27.882Z,11.13
2023-05-14T02:18:56.571Z,10.93
2023-05-14T02:21:25.797Z,11.30
2023-05-14T02:23:54.357Z,10.90
2023-05-14T02:26:23.042Z,11.07
2023-05-14T02:28:53.540Z,9.47
2023-05-14T02:31:22.085Z,11.03
2023-05-14T02:33:50.815Z,11.33
2023-05-14T02:36:19.334Z,10.90
2023-05-14T02:38:47.874Z,11.23
2023-05-14T02:41:16.940Z,10.93
2023-05-14T02:43:45.535Z,10.07
2023-05-14T02:46:15.537Z,10.40
2023-05-14T02:48:44.131Z,10.23
2023-05-14T02:51:13.251Z,10.27
2023-05-14T02:53:41.825Z,10.10
2023-05-14T02:56:10.347Z,10.63
2023-05-14T02:58:38.843Z,10.73
2023-05-14T03:01:07.705Z,9.93
2023-05-14T03:03:38.522Z,10.40
2023-05-14T03:06:07.713Z,10.50
2023-05-14T03:08:36.357Z,10.87
2023-05-14T03:11:05.000Z,10.87
2023-05-14T03:13:33.534Z,10.10
2023-05-14T03:16:02.130Z,10.43
2023-05-14T03:18:30.774Z,9.87
2023-05-14T03:21:00.785Z,10.00
2023-05-14T03:23:31.887Z,10.53
2023-05-14T03:26:00.360Z,11.13
2023-05-14T03:28:29.175Z,11.30
2023-05-14T03:30:57.980Z,10.20
2023-05-14T03:33:26.689Z,10.37
2023-05-14T03:35:55.212Z,10.70
2023-05-14T03:38:25.080Z,10.30
2023-05-14T03:40:53.595Z,11.17
2023-05-14T03:43:22.095Z,10.83
2023-05-14T03:45:52.755Z,11.07
2023-05-14T03:48:21.751Z,11.20
2023-05-14T03:50:51.225Z,10.77
2023-05-14T03:53:19.843Z,10.43
2023-05-14T03:55:49.858Z,10.73
2023-05-14T03:58:18.674Z,11.17
2023-05-14T04:00:47.201Z,10.17
2023-05-14T04:03:15.998Z,11.07
2023-05-14T04:05:44.759Z,10.13
2023-05-14T04:08:14.007Z,10.93
2023-05-14T04:10:43.291Z,10.47
2023-05-14T04:13:13.159Z,9.90
2023-05-14T04:15:42.011Z,11.10
2023-05-14T04:18:10.563Z,10.93
2023-05-14T04:20:39.184Z,9.93
2023-05-14T04:23:07.707Z,9.67
2023-05-14T04:25:36.178Z,10.47
2023-05-14T04:28:04.759Z,10.70
2023-05-14T04:30:34.628Z,9.73
2023-05-14T04:33:04.063Z,10.83
2023-05-14T04:35:32.620Z,10.07
2023-05-14T04:38:01.299Z,9.60
2023-05-14T04:40:31.065Z,9.97
2023-05-14T04:42:59.597Z,10.23
2023-05-14T04:45:28.092Z,9.77
2023-05-14T04:47:58.030Z,9.80
2023-05-14T04:50:26.677Z,8.73
2023-05-14T04:52:55.805Z,9.63
2023-05-14T04:55:24.417Z,9.13
2023-05-14T04:57:52.905Z,9.17
2023-05-14T05:00:22.142Z,9.20
2023-05-14T05:02:51.252Z,8.53
2023-05-14T05:05:21.735Z,9.00
2023-05-14T05:07:50.256Z,8.53
2023-05-14T05:10:18.811Z,8.57
2023-05-14T05:12:47.291Z,9.40
2023-05-14T05:15:16.123Z,8.47
2023-05-14T05:17:44.645Z,7.90
2023-05-14T05:20:14.096Z,7.90
2023-05-14T05:22:43.999Z,7.73
2023-05-14T05:25:12.891Z,8.03
2023-05-14T05:27:41.417Z,7.97
2023-05-14T05:30:10.802Z,8.63
2023-05-14T05:32:39.410Z,6.97
2023-05-14T05:35:08.616Z,8.03
2023-05-14T05:37:37.158Z,8.33
2023-05-14T05:40:09.151Z,7.47
2023-05-14T05:42:37.731Z,7.40
2023-05-14T05:45:07.623Z,7.63
2023-05-14T05:47:36.292Z,7.47
2023-05-14T05:50:05.474Z,8.63
2023-05-14T05:52:34.012Z,7.83
2023-05-14T05:55:02.546Z,8.20
2023-05-14T05:57:32.444Z,7.50
2023-05-14T06:00:01.051Z,7.43
2023-05-14T06:02:29.768Z,7.60
2023-05-14T06:04:58.418Z,7.07
2023-05-14T06:07:26.949Z,7.13
2023-05-14T06:09:55.476Z,8.17
2023-05-14T06:12:24.039Z,7.33
2023-05-14T06:14:57.833Z,7.67
2023-05-14T06:17:26.881Z,7.57
2023-05-14T06:19:55.408Z,7.77
2023-05-14T06:22:23.920Z,6.73
2023-05-14T06:24:52.524Z,7.20
2023-05-14T06:27:21.040Z,8.07
2023-05-14T06:29:50.062Z,8.30
2023-05-14T06:32:20.015Z,7.17
2023-05-14T06:34:48.690Z,7.47
2023-05-14T06:37:17.180Z,6.47
2023-05-14T06:39:50.075Z,7.47
2023-05-14T06:42:18.764Z,7.57
2023-05-14T06:44:47.465Z,7.57
2023-05-14T06:47:15.972Z,7.33
2023-05-14T06:49:45.883Z,7.20
2023-05-14T06:52:14.458Z,7.23
2023-05-14T06:54:42.973Z,6.63
2023-05-14T06:57:11.504Z,6.47
2023-05-14T06:59:40.079Z,6.00
2023-05-14T07:02:08.734Z,6.20
2023-05-14T07:04:37.474Z,6.40
2023-05-14T07:07:07.835Z,5.67
2023-05-14T07:09:36.360Z,5.93
2023-05-14T07:12:05.531Z,5.77
2023-05-14T07:14:34.399Z,5.47
2023-05-14T07:17:03.044Z,6.00
2023-05-14T07:19:31.651Z,5.17
2023-05-14T07:22:00.219Z,5.83
2023-05-14T07:24:30.157Z,5.27
2023-05-14T07:26:58.895Z,5.20
2023-05-14T07:29:27.465Z,5.10
2023-05-14T07:31:56.007Z,5.50
2023-05-14T07:34:24.635Z,5.10
2023-05-14T07:36:53.229Z,4.93
2023-05-14T07:39:22.306Z,5.20
2023-05-14T07:41:54.730Z,4.33
2023-05-14T07:44:23.311Z,4.47
2023-05-14T07:46:51.853Z,4.77
2023-05-14T07:49:20.428Z,4.90
2023-05-14T07:51:48.988Z,5.43
2023-05-14T07:54:18.423Z,6.43
2023-05-14T07:56:46.995Z,5.63
2023-05-14T07:59:16.844Z,5.60
2023-05-14T08:01:45.442Z,5.23
2023-05-14T08:04:16.194Z,5.97
2023-05-14T08:06:44.846Z,5.50
2023-05-14T08:09:13.363Z,5.90
2023-05-14T08:11:42.006Z,5.90
2023-05-14T08:14:10.634Z,5.97
2023-05-14T08:16:40.625Z,6.40
2023-05-14T08:19:09.303Z,5.90
2023-05-14T08:21:37.856Z,6.10
2023-05-14T08:24:06.892Z,5.87
2023-05-14T08:26:35.839Z,5.87
2023-05-14T08:29:04.384Z,5.83
2023-05-14T08:31:33.111Z,5.57
2023-05-14T08:34:03.547Z,5.77
2023-05-14T08:36:33.036Z,4.93
2023-05-14T08:39:01.588Z,6.20
2023-05-14T08:41:30.566Z,5.60
2023-05-14T08:44:07.889Z,6.40
2023-05-14T08:46:38.243Z,6.40
2023-05-14T08:49:17.021Z,5.90
2023-05-14T08:51:47.132Z,6.03
2023-05-14T08:54:17.946Z,5.43
2023-05-14T08:56:47.290Z,5.50
2023-05-14T08:59:16.049Z,5.57
2023-05-14T09:01:48.704Z,5.30
2023-05-14T09:04:22.106Z,4.70
2023-05-14T09:06:52.095Z,4.30
2023-05-14T09:09:22.531Z,4.37
2023-05-14T09:11:52.739Z,4.83
2023-05-14T09:14:21.748Z,5.23
2023-05-14T09:16:51.823Z,4.47
2023-05-14T09:19:22.425Z,4.43
2023-05-14T09:21:51.278Z,5.17
2023-05-14T09:24:24.493Z,5.47
2023-05-14T09:26:54.669Z,4.33
2023-05-14T09:29:25.001Z,4.90
2023-05-14T09:31:55.036Z,4.73
2023-05-14T09:34:30.751Z,4.40
2023-05-14T09:37:01.290Z,4.40
2023-05-14T09:39:30.961Z,3.50
2023-05-14T09:41:59.623Z,4.57
2023-05-14T09:44:29.124Z,4.65
2023-05-14T09:46:57.967Z,4.25
2023-05-14T09:49:28.455Z,4.72
2023-05-14T09:51:57.923Z,4.78
2023-05-14T09:54:27.961Z,4.32
2023-05-14T09:56:56.587Z,4.70
2023-05-14T09:59:25.110Z,4.05
2023-05-14T10:01:54.109Z,3.70
2023-05-14T10:04:24.086Z,4.25
2023-05-14T10:06:55.947Z,4.38
2023-05-14T10:09:27.291Z,4.60
2023-05-14T10:12:00.323Z,4.72
2023-05-14T10:14:34.542Z,4.43
2023-05-14T10:17:04.220Z,4.97
2023-05-14T10:19:35.339Z,4.20
2023-05-14T10:22:08.476Z,3.85
2023-05-14T10:24:38.791Z,3.95
2023-05-14T10:27:07.807Z,4.15
2023-05-14T10:29:37.787Z,4.63
2023-05-14T10:32:07.805Z,3.72
2023-05-14T10:34:42.452Z,4.47
2023-05-14T10:37:14.951Z,4.28
2023-05-14T10:39:44.777Z,4.40
2023-05-14T10:42:14.853Z,4.32
2023-05-14T10:44:49.690Z,4.53
2023-05-14T10:47:18.585Z,3.85
2023-05-14T10:49:50.105Z,4.85
2023-05-14T10:52:21.127Z,4.10
2023-05-14T10:54:54.575Z,4.53
2023-05-14T10:57:24.670Z,3.97
2023-05-14T10:59:55.160Z,3.40
2023-05-14T11:02:26.154Z,3.53
2023-05-14T11:05:00.128Z,3.30
2023-05-14T11:07:34.329Z,4.22
2023-05-14T11:10:04.675Z,4.13
2023-05-14T11:12:33.485Z,4.68
2023-05-14T11:15:04.960Z,3.75
2023-05-14T11:17:33.863Z,3.90
2023-05-14T11:20:02.495Z,3.65
2023-05-14T11:22:32.467Z,4.82
2023-05-14T11:25:01.229Z,4.18
2023-05-14T11:27:30.755Z,3.95
2023-05-14T11:30:01.991Z,3.42
2023-05-14T11:32:32.442Z,3.88
2023-05-14T11:35:01.005Z,4.25
2023-05-14T11:37:30.640Z,3.38
2023-05-14T11:40:01.929Z,3.72
2023-05-14T11:42:30.515Z,3.90
2023-05-14T11:45:01.291Z,3.58
2023-05-14T11:47:30.859Z,3.20
2023-05-14T11:50:01.004Z,3.45
2023-05-14T11:52:29.524Z,3.45
2023-05-14T11:54:58.450Z,3.53
2023-05-14T11:57:28.347Z,3.45
2023-05-14T11:59:58.640Z,3.40
2023-05-14T12:02:29.851Z,3.45
2023-05-14T12:04:58.912Z,3.17
2023-05-14T12:07:30.656Z,3.35
2023-05-14T12:10:02.929Z,3.08
2023-05-14T12:12:36.986Z,3.55
2023-05-14T12:15:13.276Z,3.97
2023-05-14T12:17:42.063Z,3.30
2023-05-14T12:20:12.242Z,3.10
2023-05-14T12:22:43.217Z,2.53
2023-05-14T12:25:14.369Z,4.22
2023-05-14T12:27:46.131Z,3.60
2023-05-14T12:32:47.008Z,3.33
2023-05-14T12:35:15.646Z,3.25
2023-05-14T12:37:44.160Z,3.20
2023-05-14T12:40:13.442Z,3.38
2023-05-14T12:42:42.045Z,2.70
2023-05-14T12:45:12.896Z,2.50
2023-05-14T12:47:41.436Z,3.55
2023-05-14T12:50:10.579Z,2.70
2023-05-14T12:52:39.932Z,2.95
2023-05-14T12:55:10.023Z,3.13
2023-05-14T12:57:38.858Z,3.13
2023-05-14T13:00:13.016Z,2.97
2023-05-14T13:02:44.248Z,11.45
2023-05-14T13:05:13.314Z,3.42
2023-05-14T13:07:42.536Z,3.20
2023-05-14T13:10:12.050Z,3.10
2023-05-14T13:12:40.918Z,3.42
2023-05-14T13:15:10.650Z,3.08
2023-05-14T13:17:40.334Z,2.92
2023-05-14T13:20:11.555Z,3.42
2023-05-14T13:22:40.165Z,3.28
2023-05-14T13:25:09.908Z,3.13
2023-05-14T13:27:38.511Z,2.83
2023-05-14T13:30:08.248Z,3.17
2023-05-14T13:32:36.762Z,3.58
2023-05-14T13:35:05.932Z,3.22
2023-05-14T13:37:35.879Z,3.67
2023-05-14T13:40:05.201Z,3.70
2023-05-14T13:42:33.798Z,2.80
2023-05-14T13:45:02.376Z,3.10
2023-05-14T13:47:31.262Z,3.40
2023-05-14T13:49:59.852Z,3.75
2023-05-14T13:52:28.543Z,4.05
2023-05-14T13:54:58.439Z,2.78
2023-05-14T13:57:26.976Z,2.95
2023-05-14T13:59:55.540Z,3.47
2023-05-14T14:02:24.254Z,3.40
2023-05-14T14:04:52.896Z,3.78
2023-05-14T14:07:21.451Z,3.00
2023-05-14T14:09:50.079Z,6.35
2023-05-14T14:12:20.070Z,3.17
2023-05-14T14:14:48.638Z,2.58
2023-05-14T14:17:17.176Z,3.50
2023-05-14T14:19:45.794Z,3.13
2023-05-14T14:22:17.200Z,2.85
2023-05-14T14:24:45.694Z,3.03
2023-05-14T14:27:14.232Z,3.07
2023-05-14T14:29:44.166Z,3.33
2023-05-14T14:32:12.706Z,3.17
2023-05-14T14:34:41.226Z,2.77
2023-05-14T14:37:09.822Z,3.20
2023-05-14T14:39:38.366Z,2.70
2023-05-14T14:42:07.836Z,3.43
2023-05-14T14:44:36.368Z,3.80
2023-05-14T14:47:06.965Z,3.20
2023-05-14T14:49:36.491Z,3.63
2023-05-14T14:52:05.325Z,3.33
2023-05-14T14:54:33.860Z,3.07
2023-05-14T14:57:02.498Z,3.47
2023-05-14T14:59:31.142Z,3.40
2023-05-14T15:01:59.811Z,3.20
2023-05-14T15:04:32.824Z,4.37
2023-05-14T15:07:01.522Z,3.03
2023-05-14T15:09:30.415Z,3.43
2023-05-14T15:11:59.033Z,3.33
2023-05-14T15:14:27.882Z,3.40
2023-05-14T15:16:56.645Z,3.50
2023-05-14T15:19:25.174Z,3.50
2023-05-14T15:21:55.092Z,3.83
2023-05-14T15:24:25.065Z,3.20
2023-05-14T15:26:53.896Z,3.87
2023-05-14T15:29:22.484Z,3.80
2023-05-14T15:31:51.113Z,3.57
2023-05-14T15:34:19.729Z,3.80
2023-05-14T15:36:48.236Z,4.07
2023-05-14T15:39:18.141Z,3.27
2023-05-14T15:41:46.719Z,3.40
2023-05-14T15:44:15.453Z,3.27
2023-05-14T15:46:44.162Z,3.50
2023-05-14T15:49:12.772Z,3.40
2023-05-14T15:51:41.323Z,2.93
2023-05-14T15:54:10.002Z,3.80
2023-05-14T15:56:40.023Z,3.83
2023-05-14T15:59:08.644Z,3.70
2023-05-14T16:01:37.256Z,3.60
2023-05-14T16:04:06.086Z,3.60
2023-05-14T16:06:35.276Z,3.60
2023-05-14T16:09:04.732Z,3.40
2023-05-14T16:11:33.233Z,3.47
2023-05-14T16:14:03.167Z,3.73
2023-05-14T16:16:31.990Z,3.80
2023-05-14T16:19:00.625Z,3.17
2023-05-14T16:21:29.150Z,3.57
2023-05-14T16:23:57.672Z,3.93
2023-05-14T16:26:26.460Z,4.10
2023-05-14T16:28:55.021Z,3.37
2023-05-14T16:31:24.987Z,3.57
2023-05-14T16:33:54.178Z,3.57
2023-05-14T16:36:22.782Z,3.60
2023-05-14T16:39:06.714Z,3.40
2023-05-14T16:41:36.232Z,3.87
2023-05-14T16:44:04.974Z,4.07
2023-05-14T16:46:35.247Z,3.97
2023-05-14T16:49:04.008Z,3.40
2023-05-14T16:51:32.885Z,4.07
2023-05-14T16:54:01.558Z,3.50
2023-05-14T16:56:32.380Z,3.80
2023-05-14T16:59:00.978Z,3.47
2023-05-14T17:01:30.085Z,4.30
2023-05-14T17:04:00.161Z,3.47
2023-05-14T17:06:29.154Z,3.57
2023-05-14T17:08:57.725Z,3.20
2023-05-14T17:11:26.228Z,4.03
2023-05-14T17:13:54.800Z,4.63
2023-05-14T17:16:23.385Z,5.40
2023-05-14T17:18:51.965Z,4.53
2023-05-14T17:21:21.836Z,4.07
2023-05-14T17:23:50.405Z,4.73
2023-05-14T17:26:18.943Z,4.37
2023-05-14T17:28:47.410Z,4.50
2023-05-14T17:31:15.960Z,4.57
2023-05-14T17:33:44.526Z,6.47
2023-05-14T17:36:13.024Z,5.43
2023-05-14T17:38:42.910Z,5.83
2023-05-14T17:41:11.427Z,6.17
2023-05-14T17:43:39.970Z,6.30
2023-05-14T17:46:08.591Z,6.20
2023-05-14T17:48:37.165Z,5.90
2023-05-14T17:51:05.721Z,6.30
2023-05-14T17:53:34.295Z,6.10
2023-05-14T17:56:04.499Z,5.33
2023-05-14T17:58:33.109Z,6.13
2023-05-14T18:01:01.702Z,5.37
2023-05-14T18:03:30.449Z,6.23
2023-05-14T18:06:00.010Z,5.80
2023-05-14T18:08:28.607Z,5.43
2023-05-14T18:10:58.134Z,5.80
2023-05-14T18:13:28.236Z,5.17
2023-05-14T18:15:57.467Z,5.63
2023-05-14T18:18:26.077Z,5.43
2023-05-14T18:20:54.732Z,5.97
2023-05-14T18:23:23.276Z,5.87
2023-05-14T18:25:51.836Z,5.90
2023-05-14T18:28:21.420Z,5.50
2023-05-14T18:30:51.358Z,5.97
2023-05-14T18:33:19.921Z,5.57
2023-05-14T18:35:48.417Z,6.10
2023-05-14T18:38:17.847Z,5.47
2023-05-14T18:40:46.832Z,4.67
2023-05-14T18:43:16.640Z,5.93
2023-05-14T18:45:46.179Z,5.57
2023-05-14T18:48:16.687Z,5.50
2023-05-14T18:50:45.211Z,5.60
2023-05-14T18:53:13.807Z,4.90
2023-05-14T18:55:42.404Z,5.07
2023-05-14T18:58:11.232Z,5.40
2023-05-14T19:00:39.751Z,5.07
2023-05-14T19:03:08.307Z,4.67
2023-05-14T19:05:38.361Z,5.53
2023-05-14T19:08:07.317Z,4.80
2023-05-14T19:10:35.842Z,5.53
2023-05-14T19:13:04.424Z,5.63
2023-05-14T19:15:33.064Z,5.80
2023-05-14T19:18:02.304Z,5.27
2023-05-14T19:20:30.944Z,5.20
2023-05-14T19:23:00.800Z,5.77
2023-05-14T19:25:29.788Z,5.93
2023-05-14T19:28:01.470Z,5.63
2023-05-14T19:30:30.012Z,6.30
2023-05-14T19:32:58.577Z,5.97
2023-05-14T19:35:27.392Z,6.00
2023-05-14T19:37:56.030Z,5.47
2023-05-14T19:40:25.938Z,5.97
2023-05-14T19:42:54.439Z,6.27
2023-05-14T19:45:23.109Z,6.20
2023-05-14T19:47:51.898Z,6.27
2023-05-14T19:50:20.655Z,6.33
2023-05-14T19:52:49.382Z,6.27
2023-05-14T19:55:18.005Z,5.93
2023-05-14T19:57:47.916Z,5.90
2023-05-14T20:00:16.973Z,5.80
2023-05-14T20:02:47.868Z,6.00
2023-05-14T20:05:16.853Z,6.30
2023-05-14T20:07:46.876Z,5.07
2023-05-14T20:10:15.712Z,6.10
2023-05-14T20:12:44.203Z,6.00
2023-05-14T20:15:14.149Z,6.88
2023-05-14T20:17:42.885Z,5.60
2023-05-14T20:20:12.054Z,5.33
2023-05-14T20:22:42.535Z,5.30
2023-05-14T20:25:11.288Z,6.13
2023-05-14T20:27:39.996Z,5.83
2023-05-14T20:30:09.688Z,6.20
2023-05-14T20:32:39.766Z,6.10
2023-05-14T20:35:09.013Z,6.70
2023-05-14T20:37:37.991Z,5.87
2023-05-14T20:40:10.441Z,5.73
2023-05-14T20:42:39.101Z,6.13
2023-05-14T20:45:08.505Z,5.93
2023-05-14T20:47:37.113Z,6.03
2023-05-14T20:50:08.230Z,5.47
2023-05-14T20:52:36.791Z,6.47
2023-05-14T20:55:07.461Z,6.13
2023-05-14T20:57:36.151Z,6.07
2023-05-14T21:00:08.451Z,6.33
2023-05-14T21:02:37.615Z,5.67
2023-05-14T21:05:08.304Z,5.57
2023-05-14T21:07:37.335Z,5.77
2023-05-14T21:10:06.658Z,6.03
2023-05-14T21:12:35.261Z,6.10
2023-05-14T21:15:03.983Z,5.77
2023-05-14T21:17:32.773Z,5.63
2023-05-14T21:20:01.404Z,6.87
2023-05-14T21:22:31.349Z,6.13
2023-05-14T21:25:00.028Z,5.60
2023-05-14T21:27:28.531Z,5.43
2023-05-14T21:29:57.047Z,6.17
2023-05-14T21:32:25.649Z,6.30
2023-05-14T21:34:54.232Z,5.83
2023-05-14T21:37:23.063Z,5.97
2023-05-14T21:39:52.951Z,5.90
2023-05-14T21:42:21.442Z,5.80
2023-05-14T21:44:49.936Z,5.87
2023-05-14T21:47:19.841Z,6.60
2023-05-14T21:49:48.425Z,6.00
2023-05-14T21:52:16.925Z,6.23
2023-05-14T21:54:45.455Z,5.53
2023-05-14T21:57:15.337Z,6.27
2023-05-14T21:59:43.843Z,5.47
2023-05-14T22:02:12.434Z,6.07
2023-05-14T22:04:41.095Z,6.60
2023-05-14T22:07:09.648Z,6.87
2023-05-14T22:09:38.220Z,7.07
2023-05-14T22:12:07.994Z,6.27
2023-05-14T22:14:37.952Z,5.53
2023-05-14T22:17:06.482Z,6.73
2023-05-14T22:19:35.112Z,7.03
2023-05-14T22:22:03.717Z,7.23
2023-05-14T22:24:32.253Z,6.43
2023-05-14T22:27:00.869Z,6.07
2023-05-14T22:29:29.427Z,7.57
2023-05-14T22:31:59.402Z,6.90
2023-05-14T22:34:27.956Z,6.53
2023-05-14T22:36:56.518Z,7.23
2023-05-14T22:39:25.035Z,5.77
2023-05-14T22:41:55.112Z,7.77
2023-05-14T22:44:24.073Z,7.83
2023-05-14T22:46:52.818Z,8.27
2023-05-14T22:49:22.758Z,7.80
2023-05-14T22:51:54.150Z,7.47
2023-05-14T22:54:22.652Z,7.17
2023-05-14T22:56:51.372Z,7.33
2023-05-14T22:59:20.997Z,7.47
2023-05-14T23:01:51.325Z,7.33
2023-05-14T23:04:19.919Z,6.87
2023-05-14T23:06:49.908Z,7.40
2023-05-14T23:09:18.902Z,7.20
2023-05-14T23:11:47.474Z,8.33
2023-05-14T23:14:17.896Z,7.43
2023-05-14T23:16:46.547Z,7.90
2023-05-14T23:19:15.320Z,7.40
2023-05-14T23:21:44.166Z,7.43
2023-05-14T23:24:14.078Z,7.87
2023-05-14T23:26:42.620Z,8.40
2023-05-14T23:29:11.232Z,8.97
2023-05-14T23:31:41.076Z,7.17
2023-05-14T23:34:09.611Z,8.43
2023-05-14T23:36:39.704Z,8.13
2023-05-14T23:39:08.344Z,9.13
2023-05-14T23:41:38.286Z,8.97
2023-05-14T23:44:07.239Z,8.93
2023-05-14T23:46:36.000Z,9.20
2023-05-14T23:49:04.698Z,9.17
2023-05-14T23:51:33.207Z,8.40
2023-05-14T23:54:01.710Z,9.27
2023-05-14T23:56:30.610Z,9.13
2023-05-14T23:59:00.610Z,9.50
